Time;durP1;ratioP1;P1;durP2;ratioP2;P2;SDS_P1;SDS_P2;PMS_P1;PMS_P2;Temp;Humidity;BMP_temperature;BMP_pressure;BME280_temperature;BME280_humidity;BME280_pressure;Samples;Min_cycle;Max_cycle;Signal;HPM_P1;HPM_P2
2022/01/16 00:04:11;;;;;;;65.20;23.50;;;1.80;99.90;;;;;;5091757;28;20132;-75
2022/01/16 00:06:41;;;;;;;72.30;26.08;;;1.80;99.90;;;;;;5091270;27;20097;-75
2022/01/16 00:09:07;;;;;;;66.35;26.23;;;1.80;99.90;;;;;;5103355;27;20409;-76
2022/01/16 00:11:35;;;;;;;62.53;24.48;;;1.70;99.90;;;;;;5065835;28;20510;-76
2022/01/16 00:14:02;;;;;;;71.00;24.23;;;1.70;99.90;;;;;;5075342;28;20108;-76
2022/01/16 00:16:28;;;;;;;66.45;24.42;;;1.70;99.90;;;;;;5080762;28;20051;-76
2022/01/16 00:18:54;;;;;;;69.55;25.23;;;1.70;99.90;;;;;;5069890;28;20056;-76
2022/01/16 00:21:22;;;;;;;71.30;24.65;;;1.70;99.90;;;;;;5093160;28;20047;-76
2022/01/16 00:23:51;;;;;;;67.07;25.88;;;1.70;99.90;;;;;;5089312;28;20044;-76
2022/01/16 00:26:17;;;;;;;73.90;25.30;;;1.60;99.90;;;;;;5074945;28;20539;-77
2022/01/16 00:28:43;;;;;;;75.57;26.83;;;1.60;99.90;;;;;;5076678;28;20433;-76
2022/01/16 00:31:08;;;;;;;81.13;26.38;;;1.60;99.90;;;;;;5087965;28;20036;-76
2022/01/16 00:33:39;;;;;;;76.50;26.88;;;1.60;99.90;;;;;;5066664;28;20040;-76
2022/01/16 00:36:08;;;;;;;78.75;26.63;;;1.60;99.90;;;;;;5076082;28;20654;-76
2022/01/16 00:38:34;;;;;;;74.57;25.20;;;1.60;99.90;;;;;;5056516;28;20183;-76
2022/01/16 00:41:00;;;;;;;89.80;28.38;;;1.60;99.90;;;;;;5090610;28;20739;-75
2022/01/16 00:43:26;;;;;;;79.00;27.23;;;1.60;99.90;;;;;;5064259;28;20185;-76
2022/01/16 00:45:52;;;;;;;82.05;28.02;;;1.60;99.90;;;;;;5066059;28;20451;-77
2022/01/16 00:48:18;;;;;;;76.70;28.83;;;1.60;99.90;;;;;;5079598;28;20048;-76
2022/01/16 00:50:43;;;;;;;82.22;28.63;;;1.60;99.90;;;;;;5063387;28;20043;-76
2022/01/16 00:53:09;;;;;;;88.40;29.73;;;1.70;99.90;;;;;;5081869;28;20092;-76
2022/01/16 00:55:37;;;;;;;84.72;29.17;;;1.70;99.90;;;;;;5077647;28;20115;-76
2022/01/16 00:58:02;;;;;;;88.38;31.10;;;1.70;99.90;;;;;;5084657;28;20085;-76
2022/01/16 01:00:31;;;;;;;84.82;29.70;;;1.70;99.90;;;;;;5089274;28;20512;-76
2022/01/16 01:02:57;;;;;;;85.90;31.75;;;1.70;99.90;;;;;;5067304;28;20059;-76
2022/01/16 01:05:22;;;;;;;84.88;32.70;;;1.80;99.90;;;;;;5077324;28;20556;-77
2022/01/16 01:07:48;;;;;;;92.90;34.22;;;1.70;99.90;;;;;;5078743;28;20040;-76
2022/01/16 01:10:14;;;;;;;82.28;32.10;;;1.70;99.90;;;;;;5063159;28;20035;-76
2022/01/16 01:12:53;;;;;;;78.10;32.20;;;1.60;99.90;;;;;;5067290;28;20044;-76
2022/01/16 01:15:22;;;;;;;84.05;31.80;;;1.60;99.90;;;;;;5111386;27;20072;-76
2022/01/16 01:17:49;;;;;;;80.80;30.67;;;1.60;99.90;;;;;;5090081;28;20063;-76
2022/01/16 01:20:18;;;;;;;82.90;31.73;;;1.70;99.90;;;;;;5104327;27;20048;-75
2022/01/16 01:22:46;;;;;;;88.07;33.35;;;1.70;99.90;;;;;;5075219;28;20054;-76
2022/01/16 01:25:13;;;;;;;92.15;36.38;;;1.70;99.90;;;;;;5086974;28;20039;-76
2022/01/16 01:27:41;;;;;;;86.65;32.03;;;1.70;99.90;;;;;;5090853;28;20584;-76
2022/01/16 01:30:09;;;;;;;97.43;35.78;;;1.70;99.90;;;;;;5091612;28;20083;-76
2022/01/16 01:32:37;;;;;;;82.95;31.15;;;1.70;99.90;;;;;;5090477;28;20535;-76
2022/01/16 01:35:09;;;;;;;94.32;33.03;;;1.70;99.90;;;;;;5103824;27;20464;-76
2022/01/16 01:37:35;;;;;;;86.50;33.10;;;1.70;99.90;;;;;;5089649;28;20040;-76
2022/01/16 01:40:03;;;;;;;86.65;32.95;;;1.70;99.90;;;;;;5090220;28;20040;-76
2022/01/16 01:42:33;;;;;;;80.22;31.52;;;1.70;99.90;;;;;;5077974;28;20124;-76
2022/01/16 01:53:13;;;;;;;97.32;34.63;;;1.70;99.90;;;;;;5072993;28;20087;-77
2022/01/16 01:55:42;;;;;;;111.97;38.47;;;1.70;99.90;;;;;;5091622;27;20135;-77
2022/01/16 01:58:08;;;;;;;95.78;33.25;;;1.70;99.90;;;;;;5073728;28;20466;-76
2022/01/16 02:00:35;;;;;;;104.50;35.05;;;1.70;99.90;;;;;;5092763;27;20075;-76
2022/01/16 02:05:29;;;;;;;106.93;34.90;;;1.60;99.90;;;;;;5076529;28;20431;-77
2022/01/16 02:07:55;;;;;;;104.07;36.03;;;1.70;99.90;;;;;;5068478;28;20044;-76
2022/01/16 02:10:20;;;;;;;114.47;34.33;;;1.70;99.90;;;;;;5061660;28;20766;-76
2022/01/16 02:12:50;;;;;;;110.00;37.03;;;1.70;99.90;;;;;;5074270;28;20044;-77
2022/01/16 02:30:02;;;;;;;135.90;39.28;;;1.70;99.90;;;;;;5071886;28;20421;-77
2022/01/16 02:34:35;;;;;;;125.25;35.50;;;1.60;99.90;;;;;;5084093;28;20079;-77
2022/01/16 02:37:06;;;;;;;137.15;38.13;;;1.60;99.90;;;;;;5059818;28;20044;-77
2022/01/16 02:39:35;;;;;;;151.00;38.92;;;1.60;99.90;;;;;;5105123;28;20733;-77
2022/01/16 02:42:02;;;;;;;155.00;39.13;;;1.60;99.90;;;;;;5066377;28;20055;-76
2022/01/16 02:46:57;;;;;;;157.68;40.08;;;1.60;99.90;;;;;;5091957;28;20043;-77
2022/01/16 02:49:27;;;;;;;148.77;35.90;;;1.60;99.90;;;;;;5105392;28;20507;-77
2022/01/16 02:52:08;;;;;;;152.63;36.75;;;1.60;99.90;;;;;;5073567;28;20066;-76
2022/01/16 02:54:39;;;;;;;154.88;35.33;;;1.60;99.90;;;;;;5093449;28;20039;-77
2022/01/16 02:57:13;;;;;;;136.23;35.60;;;1.60;99.90;;;;;;5070673;28;20520;-77
2022/01/16 02:59:41;;;;;;;157.95;34.20;;;1.60;99.90;;;;;;5085888;28;20032;-77
2022/01/16 03:02:07;;;;;;;137.93;33.13;;;1.60;99.90;;;;;;5090351;28;20047;-77
2022/01/16 03:04:33;;;;;;;132.23;34.72;;;1.60;99.90;;;;;;5106515;28;20051;-76
2022/01/16 03:07:01;;;;;;;130.35;36.20;;;1.60;99.90;;;;;;5107916;28;20044;-77
2022/01/16 03:09:36;;;;;;;137.20;34.55;;;1.70;99.90;;;;;;5091067;28;20044;-76
2022/01/16 03:12:06;;;;;;;126.53;34.25;;;1.70;99.90;;;;;;5072847;28;20393;-77
2022/01/16 03:14:33;;;;;;;149.33;37.07;;;1.30;99.90;;;;;;5087936;28;20119;-77
2022/01/16 03:16:58;;;;;;;136.50;35.50;;;1.70;99.90;;;;;;5084539;28;20077;-77
2022/01/16 03:22:08;;;;;;;118.03;33.30;;;1.70;99.90;;;;;;5079582;28;20169;-77
2022/01/16 03:24:44;;;;;;;138.90;35.72;;;1.70;99.90;;;;;;5089700;28;20071;-77
2022/01/16 03:27:15;;;;;;;132.35;35.70;;;1.70;99.90;;;;;;5084670;28;20048;-77
2022/01/16 03:29:44;;;;;;;126.55;34.58;;;1.80;99.90;;;;;;5079271;28;20064;-77
2022/01/16 03:32:12;;;;;;;141.68;33.17;;;1.70;99.90;;;;;;5056529;28;20069;-77
2022/01/16 03:34:38;;;;;;;119.28;32.45;;;1.70;99.90;;;;;;5094633;27;20068;-77
2022/01/16 03:37:05;;;;;;;130.60;35.22;;;1.80;99.90;;;;;;5075376;28;21784;-76
2022/01/16 03:39:31;;;;;;;133.30;35.90;;;1.80;99.90;;;;;;5093517;27;20181;-76
2022/01/16 03:41:59;;;;;;;129.57;35.97;;;1.80;99.90;;;;;;5055549;28;20695;-77
2022/01/16 03:44:25;;;;;;;130.25;35.00;;;1.80;99.90;;;;;;5092269;27;20055;-77
2022/01/16 03:46:51;;;;;;;127.32;34.20;;;1.80;99.90;;;;;;5085914;28;20493;-77
2022/01/16 03:49:23;;;;;;;143.65;38.45;;;1.80;99.90;;;;;;5075268;28;20476;-77
2022/01/16 03:51:50;;;;;;;136.77;34.53;;;1.80;99.90;;;;;;5081904;28;20100;-77
2022/01/16 03:54:19;;;;;;;133.10;35.63;;;1.90;99.90;;;;;;5089124;28;20620;-77
2022/01/16 03:56:45;;;;;;;148.63;35.28;;;1.80;99.90;;;;;;5111114;27;20096;-77
2022/01/16 03:59:10;;;;;;;131.98;33.15;;;1.90;99.90;;;;;;5094466;28;20535;-77
2022/01/16 04:01:36;;;;;;;148.80;36.78;;;1.90;99.90;;;;;;5074480;28;20048;-77
2022/01/16 04:04:03;;;;;;;151.35;36.10;;;1.90;99.90;;;;;;5112908;27;20047;-77
2022/01/16 04:06:28;;;;;;;149.02;35.20;;;1.90;99.90;;;;;;5072219;28;20036;-77
2022/01/16 04:08:55;;;;;;;154.77;36.97;;;1.90;99.90;;;;;;5085565;28;20047;-77
2022/01/16 04:11:22;;;;;;;153.65;36.42;;;1.90;99.90;;;;;;5085445;28;20164;-77
2022/01/16 04:13:51;;;;;;;144.63;35.17;;;2.00;99.90;;;;;;5083706;28;20043;-77
2022/01/16 04:16:18;;;;;;;157.80;38.38;;;2.00;99.90;;;;;;5059001;28;20583;-77
2022/01/16 04:18:44;;;;;;;151.85;37.92;;;2.00;99.90;;;;;;5080913;28;20043;-77
2022/01/16 04:21:10;;;;;;;149.63;35.90;;;2.00;99.90;;;;;;5089962;28;20055;-77
2022/01/16 04:23:35;;;;;;;146.20;37.17;;;2.00;99.90;;;;;;5073775;28;20059;-77
2022/01/16 04:26:01;;;;;;;180.57;37.67;;;2.00;99.90;;;;;;5097061;28;20047;-77
2022/01/16 04:28:27;;;;;;;140.43;35.83;;;2.10;99.90;;;;;;5091001;28;20122;-77
2022/01/16 04:30:53;;;;;;;142.73;35.03;;;2.10;99.90;;;;;;5069863;28;20047;-77
2022/01/16 04:33:20;;;;;;;169.68;39.22;;;2.10;99.90;;;;;;5061505;28;20048;-77
2022/01/16 04:35:46;;;;;;;176.65;39.30;;;2.20;99.90;;;;;;5066723;28;20062;-78
2022/01/16 04:38:12;;;;;;;147.77;38.38;;;2.20;99.90;;;;;;5084040;28;20075;-77
2022/01/16 04:43:47;;;;;;;183.55;40.55;;;2.30;99.90;;;;;;5085572;28;20580;-77
2022/01/16 04:46:10;;;;;;;155.68;39.92;;;2.30;99.90;;;;;;5080573;28;20055;-77
2022/01/16 04:48:36;;;;;;;167.63;38.88;;;2.30;99.90;;;;;;5053947;28;20040;-77
2022/01/16 04:51:02;;;;;;;147.95;36.42;;;2.40;99.90;;;;;;5075461;28;20053;-77
2022/01/16 04:53:27;;;;;;;166.25;38.58;;;2.40;99.90;;;;;;5066652;28;20106;-76
2022/01/16 04:55:53;;;;;;;169.43;41.10;;;2.40;99.90;;;;;;5082627;28;20519;-77
2022/01/16 04:58:21;;;;;;;180.07;39.88;;;2.40;99.90;;;;;;5096089;27;20123;-77
2022/01/16 05:00:46;;;;;;;170.75;39.92;;;2.40;99.90;;;;;;5100652;28;20048;-77
2022/01/16 05:03:12;;;;;;;155.68;39.08;;;2.40;99.90;;;;;;5086024;28;20070;-78
2022/01/16 05:05:38;;;;;;;196.45;44.55;;;2.50;99.90;;;;;;5085885;28;20062;-77
2022/01/16 05:08:04;;;;;;;180.77;39.75;;;2.50;99.90;;;;;;5091802;28;20112;-78
2022/01/16 05:10:29;;;;;;;157.18;38.10;;;2.50;99.90;;;;;;5086682;28;20097;-77
2022/01/16 05:13:04;;;;;;;187.93;40.28;;;2.50;99.90;;;;;;5091008;28;20050;-77
2022/01/16 05:18:14;;;;;;;201.35;44.00;;;2.60;99.90;;;;;;5088521;28;20766;-77
2022/01/16 05:20:40;;;;;;;213.95;42.75;;;2.60;99.90;;;;;;5098208;28;20089;-77
2022/01/16 05:23:05;;;;;;;207.85;43.63;;;2.60;99.90;;;;;;5092305;28;20484;-76
2022/01/16 05:25:31;;;;;;;165.55;39.65;;;2.60;99.90;;;;;;5072620;28;20063;-77
2022/01/16 05:27:57;;;;;;;207.43;45.13;;;2.70;99.90;;;;;;5090754;28;20036;-76
2022/01/16 05:30:22;;;;;;;226.93;45.95;;;2.70;99.90;;;;;;5087927;28;20395;-77
2022/01/16 05:32:48;;;;;;;195.30;40.42;;;2.70;99.90;;;;;;5062607;28;20039;-77
2022/01/16 05:35:13;;;;;;;228.60;44.50;;;2.70;99.90;;;;;;5084484;28;20050;-77
2022/01/16 05:37:39;;;;;;;200.68;41.85;;;2.70;99.90;;;;;;5087133;28;20112;-76
2022/01/16 05:40:06;;;;;;;219.77;44.30;;;2.70;99.90;;;;;;5071236;28;20112;-77
2022/01/16 05:42:32;;;;;;;213.88;42.53;;;2.70;99.90;;;;;;5067307;28;20051;-77
2022/01/16 05:44:58;;;;;;;208.75;42.97;;;2.80;99.90;;;;;;5068683;28;20048;-77
2022/01/16 05:47:24;;;;;;;174.63;39.40;;;2.80;99.90;;;;;;5067986;28;20048;-77
2022/01/16 05:49:49;;;;;;;194.40;42.10;;;2.80;99.90;;;;;;5089177;28;20047;-77
2022/01/16 05:52:15;;;;;;;187.88;41.08;;;2.80;99.90;;;;;;5076148;28;20518;-77
2022/01/16 05:54:41;;;;;;;221.60;45.83;;;2.80;99.90;;;;;;5058520;28;20043;-77
2022/01/16 05:57:07;;;;;;;224.27;45.85;;;2.80;99.90;;;;;;5070360;28;20044;-77
2022/01/16 05:59:32;;;;;;;212.63;49.60;;;2.80;99.90;;;;;;5089663;28;20431;-77
2022/01/16 06:01:58;;;;;;;191.80;43.20;;;2.90;99.90;;;;;;5079001;28;20052;-77
2022/01/16 06:04:24;;;;;;;172.50;42.20;;;2.90;99.90;;;;;;5094373;28;20101;-76
2022/01/16 06:06:49;;;;;;;197.57;43.03;;;2.90;99.90;;;;;;5087175;28;20070;-77
2022/01/16 06:09:15;;;;;;;181.77;42.78;;;2.90;99.90;;;;;;5082273;28;20049;-77
2022/01/16 06:11:40;;;;;;;194.52;42.20;;;2.90;99.90;;;;;;5069280;28;20043;-76
2022/01/16 06:14:06;;;;;;;182.38;41.13;;;3.00;99.90;;;;;;5071418;28;20031;-76
2022/01/16 06:16:33;;;;;;;184.88;42.83;;;3.00;99.90;;;;;;5068592;28;20071;-77
2022/01/16 06:18:59;;;;;;;208.32;44.70;;;3.00;99.90;;;;;;5065900;28;20434;-76
2022/01/16 06:21:24;;;;;;;187.73;46.35;;;3.00;99.90;;;;;;5086949;28;20040;-77
2022/01/16 06:23:50;;;;;;;190.77;44.25;;;3.10;99.90;;;;;;5070397;28;20059;-77
2022/01/16 06:26:15;;;;;;;185.05;45.28;;;3.10;99.90;;;;;;5083886;28;20047;-77
2022/01/16 06:28:41;;;;;;;160.40;40.78;;;3.10;99.90;;;;;;5067571;28;20047;-77
2022/01/16 06:31:07;;;;;;;199.20;46.13;;;3.10;99.90;;;;;;5062270;28;20477;-76
2022/01/16 06:33:32;;;;;;;181.82;48.30;;;3.20;99.90;;;;;;5077845;28;20812;-77
2022/01/16 06:35:58;;;;;;;174.77;45.22;;;3.30;99.90;;;;;;5064123;28;21691;-77
2022/01/16 06:38:24;;;;;;;187.50;45.03;;;3.20;99.90;;;;;;5099146;28;20060;-77
2022/01/16 06:40:49;;;;;;;188.25;47.15;;;3.30;99.90;;;;;;5088223;28;20052;-77
2022/01/16 06:43:15;;;;;;;197.60;47.55;;;3.30;99.90;;;;;;5102399;28;20629;-77
2022/01/16 06:45:40;;;;;;;175.98;44.45;;;3.30;99.90;;;;;;5084654;28;20058;-77
2022/01/16 06:48:06;;;;;;;177.65;45.20;;;3.30;99.90;;;;;;5081959;28;20044;-76
2022/01/16 06:50:32;;;;;;;170.70;46.38;;;3.40;99.90;;;;;;5072881;28;20119;-77
2022/01/16 06:52:57;;;;;;;190.07;45.50;;;3.40;99.90;;;;;;5085681;28;20035;-77
2022/01/16 06:55:23;;;;;;;162.88;44.90;;;3.40;99.90;;;;;;5065782;28;20044;-77
2022/01/16 06:57:48;;;;;;;187.80;47.83;;;3.40;99.90;;;;;;5070975;28;20035;-76
2022/01/16 07:00:14;;;;;;;163.40;46.05;;;3.50;99.90;;;;;;5086199;28;20040;-75
2022/01/16 07:02:40;;;;;;;175.10;44.88;;;3.50;99.90;;;;;;5094079;27;20220;-77
2022/01/16 07:05:06;;;;;;;169.82;46.30;;;3.50;99.90;;;;;;5085062;28;20051;-76
2022/01/16 07:07:32;;;;;;;182.95;46.28;;;3.50;99.90;;;;;;5078407;28;20032;-76
2022/01/16 07:09:58;;;;;;;185.57;46.50;;;3.50;99.90;;;;;;5067197;28;20131;-76
2022/01/16 07:12:23;;;;;;;160.55;45.88;;;3.50;99.90;;;;;;5065264;28;20115;-76
2022/01/16 07:14:49;;;;;;;162.18;45.50;;;3.60;99.90;;;;;;5085018;28;20450;-76
2022/01/16 07:17:15;;;;;;;158.90;45.22;;;3.60;99.90;;;;;;5089085;28;20048;-76
2022/01/16 07:19:40;;;;;;;158.52;45.15;;;3.60;99.90;;;;;;5089898;28;20052;-75
2022/01/16 07:22:06;;;;;;;174.80;47.90;;;3.60;99.90;;;;;;5069919;28;20416;-76
2022/01/16 07:24:32;;;;;;;162.68;47.17;;;3.70;99.90;;;;;;5091150;28;20071;-76
2022/01/16 07:27:00;;;;;;;155.73;44.70;;;3.70;99.90;;;;;;5071640;28;20462;-76
2022/01/16 07:29:27;;;;;;;158.75;46.53;;;3.70;99.90;;;;;;5086577;28;20086;-77
2022/01/16 07:31:53;;;;;;;152.07;45.72;;;3.80;99.90;;;;;;5082066;28;20036;-76
2022/01/16 07:34:19;;;;;;;137.93;45.30;;;3.80;99.90;;;;;;5069601;28;20101;-75
2022/01/16 07:36:44;;;;;;;147.60;44.80;;;3.80;99.90;;;;;;5106948;27;20075;-76
2022/01/16 07:39:10;;;;;;;150.73;45.53;;;3.80;99.90;;;;;;5088029;28;20593;-75
2022/01/16 07:41:36;;;;;;;132.88;43.53;;;3.80;99.90;;;;;;5085176;28;20044;-75
2022/01/16 07:44:02;;;;;;;136.63;43.47;;;3.80;99.90;;;;;;5085497;28;20486;-76
2022/01/16 07:46:28;;;;;;;153.68;45.35;;;3.90;99.90;;;;;;5097209;27;20032;-76
2022/01/16 07:48:54;;;;;;;154.45;47.85;;;3.90;99.90;;;;;;5085923;28;20516;-76
2022/01/16 07:51:19;;;;;;;146.15;44.63;;;3.90;99.90;;;;;;5070163;28;20040;-76
2022/01/16 07:53:45;;;;;;;136.68;44.95;;;4.00;99.90;;;;;;5104128;27;20126;-75
2022/01/16 07:56:11;;;;;;;128.70;44.13;;;4.00;99.90;;;;;;5071633;28;20070;-75
2022/01/16 07:58:36;;;;;;;137.07;42.50;;;4.00;99.90;;;;;;5086060;28;20189;-75
2022/01/16 08:01:03;;;;;;;140.63;42.88;;;4.00;99.90;;;;;;5090763;28;20048;-75
2022/01/16 08:03:29;;;;;;;132.93;43.08;;;4.00;99.90;;;;;;5088148;28;20404;-75
2022/01/16 08:05:54;;;;;;;127.22;42.92;;;3.90;99.90;;;;;;5083562;28;20039;-75
2022/01/16 08:08:20;;;;;;;128.27;43.60;;;4.00;99.90;;;;;;5074962;28;20147;-75
2022/01/16 08:10:46;;;;;;;117.57;42.53;;;4.00;99.90;;;;;;5062067;28;20041;-76
2022/01/16 08:13:11;;;;;;;106.40;41.60;;;4.00;99.90;;;;;;5066881;28;20085;-75
2022/01/16 08:15:37;;;;;;;101.43;38.75;;;4.00;99.90;;;;;;5066447;28;20137;-75
2022/01/16 08:18:03;;;;;;;109.97;40.08;;;4.10;99.90;;;;;;5073842;28;20037;-75
2022/01/16 08:20:28;;;;;;;106.32;39.92;;;4.20;99.90;;;;;;5078119;28;20359;-75
2022/01/16 08:22:54;;;;;;;97.30;40.03;;;4.20;99.90;;;;;;5081407;28;21629;-76
2022/01/16 08:25:20;;;;;;;101.20;37.85;;;4.20;99.90;;;;;;5088567;28;20109;-75
2022/01/16 08:27:46;;;;;;;92.10;39.17;;;4.30;99.90;;;;;;5090873;28;20405;-76
2022/01/16 08:30:12;;;;;;;102.28;38.63;;;4.30;99.90;;;;;;5066091;28;20067;-75
2022/01/16 08:32:39;;;;;;;92.03;37.50;;;4.30;99.90;;;;;;5083632;28;20405;-76
2022/01/16 08:35:06;;;;;;;89.03;37.47;;;4.30;99.90;;;;;;5069168;28;20051;-76
2022/01/16 08:37:32;;;;;;;87.78;38.05;;;4.40;99.90;;;;;;5079892;28;20086;-76
2022/01/16 08:39:57;;;;;;;78.07;36.33;;;4.40;99.90;;;;;;5082460;28;20127;-76
2022/01/16 08:42:23;;;;;;;82.60;37.80;;;4.40;99.90;;;;;;5082551;28;20058;-76
2022/01/16 08:44:49;;;;;;;83.10;36.47;;;4.50;99.90;;;;;;5068403;28;20050;-76
2022/01/16 08:47:15;;;;;;;84.28;36.65;;;4.50;99.90;;;;;;5110388;27;20186;-76
2022/01/16 08:49:41;;;;;;;79.15;36.85;;;4.60;99.90;;;;;;5071169;28;20085;-75
2022/01/16 08:52:06;;;;;;;77.75;35.10;;;4.60;99.90;;;;;;5071270;28;20059;-76
2022/01/16 08:54:33;;;;;;;79.93;34.42;;;4.70;99.90;;;;;;5087088;28;20044;-76
2022/01/16 08:57:00;;;;;;;77.55;36.90;;;4.70;99.90;;;;;;5079278;28;20032;-76
2022/01/16 08:59:25;;;;;;;77.35;34.13;;;4.80;99.90;;;;;;5090720;28;20097;-76
2022/01/16 09:01:51;;;;;;;72.55;32.97;;;4.80;99.90;;;;;;5061111;28;20070;-75
2022/01/16 09:04:20;;;;;;;79.68;35.47;;;4.80;99.90;;;;;;5077453;28;20043;-76
2022/01/16 09:06:45;;;;;;;73.45;33.03;;;4.90;99.90;;;;;;5086048;28;20055;-77
2022/01/16 09:09:11;;;;;;;71.20;32.70;;;4.90;99.90;;;;;;5076624;28;20048;-76
2022/01/16 09:11:37;;;;;;;63.42;31.77;;;5.00;99.90;;;;;;5066937;28;20051;-76
2022/01/16 09:14:03;;;;;;;66.95;31.45;;;4.90;99.90;;;;;;5101403;27;20059;-76
2022/01/16 09:16:30;;;;;;;69.45;32.00;;;5.00;99.90;;;;;;5081012;28;20055;-76
2022/01/16 09:18:56;;;;;;;68.63;30.27;;;5.00;99.90;;;;;;5078490;28;20411;-76
2022/01/16 09:21:22;;;;;;;62.92;32.13;;;5.00;99.90;;;;;;5086701;28;20047;-77
2022/01/16 09:23:49;;;;;;;66.75;31.05;;;5.00;99.90;;;;;;5062267;28;20044;-76
2022/01/16 09:26:15;;;;;;;72.80;31.67;;;5.10;99.90;;;;;;5074337;28;20041;-76
2022/01/16 09:28:42;;;;;;;58.35;30.20;;;5.10;99.90;;;;;;5078961;28;20168;-77
2022/01/16 09:31:08;;;;;;;62.65;29.30;;;5.10;99.90;;;;;;5089654;28;20130;-76
2022/01/16 09:33:34;;;;;;;61.35;28.90;;;5.20;99.90;;;;;;5086463;28;20043;-76
2022/01/16 09:36:02;;;;;;;61.13;29.35;;;5.20;99.90;;;;;;5077062;28;20421;-77
2022/01/16 09:38:28;;;;;;;54.05;27.17;;;5.30;99.90;;;;;;5085262;28;20043;-76
2022/01/16 09:40:55;;;;;;;57.42;28.08;;;5.30;99.90;;;;;;5067496;28;20059;-76
2022/01/16 09:43:21;;;;;;;60.00;28.00;;;5.30;99.90;;;;;;5063621;28;20051;-76
2022/01/16 09:45:48;;;;;;;46.25;27.13;;;5.30;99.90;;;;;;5088924;28;20040;-76
2022/01/16 09:48:16;;;;;;;57.80;27.40;;;5.40;99.90;;;;;;5085988;28;20139;-76
2022/01/16 09:50:42;;;;;;;59.38;28.00;;;5.40;99.90;;;;;;5086306;28;20043;-76
2022/01/16 09:53:07;;;;;;;53.67;26.88;;;5.50;99.90;;;;;;5088006;28;20130;-76
2022/01/16 09:55:33;;;;;;;52.38;26.70;;;5.60;99.90;;;;;;5063909;28;20950;-76
2022/01/16 09:58:00;;;;;;;51.25;25.58;;;5.60;99.90;;;;;;5085027;28;20039;-76
2022/01/16 10:00:27;;;;;;;52.33;27.05;;;5.60;99.90;;;;;;5068942;28;20056;-76
2022/01/16 10:02:53;;;;;;;51.90;25.60;;;5.60;99.90;;;;;;5070049;28;20040;-76
2022/01/16 10:05:25;;;;;;;51.58;25.65;;;5.70;99.90;;;;;;5089682;28;20043;-76
2022/01/16 10:07:51;;;;;;;;;;;5.70;99.90;;;;;;5072908;28;20036;-76
2022/01/16 10:10:19;;;;;;;54.60;24.75;;;5.70;99.90;;;;;;5087697;28;20011;-77
2022/01/16 10:12:51;;;;;;;48.70;24.88;;;5.70;99.90;;;;;;5068795;28;20040;-76
2022/01/16 10:15:19;;;;;;;50.45;24.10;;;5.80;99.90;;;;;;5095572;28;20044;-76
2022/01/16 10:17:51;;;;;;;49.65;24.75;;;5.80;99.90;;;;;;5082483;28;20380;-76
2022/01/16 10:20:17;;;;;;;61.55;25.90;;;5.80;99.90;;;;;;5065617;28;20109;-75
2022/01/16 10:22:55;;;;;;;50.50;23.88;;;5.90;99.90;;;;;;5087138;28;20067;-76
2022/01/16 10:25:45;;;;;;;43.60;24.42;;;5.90;99.90;;;;;;5088014;28;20047;-76
2022/01/16 10:28:20;;;;;;;44.03;21.42;;;6.00;99.90;;;;;;5069152;28;20412;-76
2022/01/16 10:30:49;;;;;;;40.42;22.23;;;6.00;99.90;;;;;;5086650;28;20036;-76
2022/01/16 10:33:21;;;;;;;47.08;22.27;;;6.10;99.90;;;;;;5069361;28;20786;-76
2022/01/16 10:35:50;;;;;;;46.05;22.90;;;6.10;99.90;;;;;;5064906;28;20078;-76
2022/01/16 10:38:23;;;;;;;51.80;21.88;;;6.10;99.90;;;;;;5077326;28;20040;-76
2022/01/16 10:40:51;;;;;;;42.38;21.85;;;6.10;99.90;;;;;;5084940;28;20051;-76
2022/01/16 10:43:37;;;;;;;48.88;21.75;;;6.20;99.90;;;;;;5085345;28;20079;-75
2022/01/16 10:46:03;;;;;;;41.38;21.83;;;6.20;99.90;;;;;;5086429;28;20047;-75
2022/01/16 10:48:29;;;;;;;40.20;21.15;;;6.20;99.90;;;;;;5085548;28;20523;-76
2022/01/16 10:50:55;;;;;;;46.30;21.15;;;6.20;99.90;;;;;;5086059;28;20505;-75
2022/01/16 10:53:26;;;;;;;40.22;19.65;;;6.20;99.90;;;;;;5089058;28;20044;-76
2022/01/16 10:55:55;;;;;;;38.03;19.90;;;6.20;99.90;;;;;;5078694;28;20044;-76
2022/01/16 10:58:50;;;;;;;40.13;19.08;;;6.30;99.90;;;;;;5085687;28;20400;-76
2022/01/16 11:01:18;;;;;;;39.88;19.40;;;6.30;99.90;;;;;;5083965;28;20060;-76
2022/01/16 11:03:46;;;;;;;36.65;17.38;;;6.30;99.90;;;;;;5105189;28;20104;-76
2022/01/16 11:06:26;;;;;;;41.42;18.08;;;6.30;99.90;;;;;;5091181;28;20041;-76
2022/01/16 11:08:57;;;;;;;40.17;17.58;;;6.30;99.90;;;;;;5081037;28;20044;-76
2022/01/16 11:11:27;;;;;;;37.03;17.63;;;6.30;99.90;;;;;;5061294;28;20151;-76
2022/01/16 11:14:00;;;;;;;37.33;15.93;;;6.30;99.90;;;;;;5102608;28;20076;-76
2022/01/16 11:16:27;;;;;;;36.80;15.57;;;6.30;99.90;;;;;;5068250;28;20044;-76
2022/01/16 11:18:53;;;;;;;38.22;15.50;;;6.30;99.90;;;;;;5086379;28;20085;-76
2022/01/16 11:21:20;;;;;;;31.77;14.90;;;6.30;99.90;;;;;;5095222;28;20628;-76
2022/01/16 11:26:20;;;;;;;30.60;14.52;;;6.40;99.90;;;;;;5075270;28;20137;-76
2022/01/16 11:28:46;;;;;;;31.75;15.10;;;6.40;99.90;;;;;;5068490;28;20040;-76
2022/01/16 11:31:14;;;;;;;29.25;13.68;;;6.40;99.90;;;;;;5070762;28;20467;-76
2022/01/16 11:33:41;;;;;;;33.88;13.98;;;6.40;99.90;;;;;;5100398;28;20040;-76
2022/01/16 11:36:20;;;;;;;32.63;12.20;;;6.40;99.90;;;;;;5088777;28;20495;-76
2022/01/16 11:38:50;;;;;;;29.23;12.55;;;6.40;99.90;;;;;;5092708;28;20123;-76
2022/01/16 11:41:19;;;;;;;26.77;11.88;;;6.40;99.90;;;;;;5091244;28;20059;-76
2022/01/16 11:43:53;;;;;;;24.88;11.73;;;6.40;99.90;;;;;;5088643;28;20436;-76
2022/01/16 11:46:24;;;;;;;34.28;11.07;;;6.40;99.90;;;;;;5088947;28;20084;-76
2022/01/16 11:49:02;;;;;;;30.25;10.95;;;6.50;99.90;;;;;;5083179;28;20075;-76
2022/01/16 11:51:38;;;;;;;36.20;10.32;;;6.50;99.90;;;;;;5086833;28;20113;-75
2022/01/16 11:54:04;;;;;;;32.42;10.13;;;6.50;99.90;;;;;;5090532;28;20052;-76
2022/01/16 11:56:42;;;;;;;26.30;9.55;;;6.50;99.90;;;;;;5088132;28;20584;-77
2022/01/16 11:59:24;;;;;;;18.65;8.95;;;6.50;99.90;;;;;;5090376;28;20093;-76
2022/01/16 12:02:09;;;;;;;27.55;9.70;;;6.60;99.90;;;;;;5093654;28;20051;-78
2022/01/16 12:04:36;;;;;;;30.02;10.10;;;6.60;99.90;;;;;;5096935;28;20040;-76
2022/01/16 12:07:21;;;;;;;25.95;9.02;;;6.60;99.90;;;;;;5086279;28;20040;-77
2022/01/16 12:12:15;;;;;;;23.27;9.38;;;6.60;99.90;;;;;;5087799;28;20056;-76
2022/01/16 12:14:50;;;;;;;21.55;9.05;;;6.60;99.90;;;;;;5098061;28;20047;-75
2022/01/16 12:17:51;;;;;;;20.58;8.15;;;6.60;99.90;;;;;;5088224;28;20047;-75
2022/01/16 12:20:26;;;;;;;24.75;7.72;;;6.70;99.90;;;;;;5082161;28;20052;-75
2022/01/16 12:22:58;;;;;;;25.33;8.18;;;6.70;99.90;;;;;;5072354;28;20044;-76
2022/01/16 12:25:43;;;;;;;23.85;7.68;;;6.70;99.90;;;;;;5069105;28;20473;-76
2022/01/16 12:28:08;;;;;;;26.17;8.40;;;6.70;99.90;;;;;;5087321;28;20055;-76
2022/01/16 12:30:52;;;;;;;24.90;8.85;;;6.70;99.90;;;;;;5086112;28;20044;-75
2022/01/16 12:33:23;;;;;;;24.00;8.55;;;6.70;99.90;;;;;;5076649;28;20051;-76
2022/01/16 12:35:51;;;;;;;22.45;7.53;;;6.70;99.90;;;;;;5081467;28;20153;-76
2022/01/16 12:38:19;;;;;;;18.63;7.53;;;6.70;99.90;;;;;;5088452;28;20054;-76
2022/01/16 12:40:58;;;;;;;22.33;7.20;;;6.70;99.90;;;;;;5089029;28;20058;-76
2022/01/16 12:43:31;;;;;;;21.08;8.13;;;6.70;99.90;;;;;;5084378;28;20058;-76
2022/01/16 12:45:58;;;;;;;22.85;8.40;;;6.70;99.90;;;;;;5063158;28;20493;-76
2022/01/16 12:48:24;;;;;;;21.15;8.13;;;6.80;99.90;;;;;;5085227;28;20100;-76
2022/01/16 12:50:57;;;;;;;30.45;9.50;;;6.70;99.90;;;;;;5103892;28;20036;-76
2022/01/16 12:53:41;;;;;;;14.07;7.65;;;6.70;99.90;;;;;;5070919;28;20056;-76
2022/01/16 12:56:25;;;;;;;22.98;7.60;;;6.70;99.90;;;;;;5071066;28;20051;-76
2022/01/16 12:58:54;;;;;;;23.05;7.60;;;6.70;99.90;;;;;;5087962;28;20044;-76
2022/01/16 13:01:20;;;;;;;21.95;7.45;;;6.70;99.90;;;;;;5086610;28;20040;-76
2022/01/16 13:03:46;;;;;;;21.40;8.45;;;6.70;99.90;;;;;;5072053;28;20079;-76
2022/01/16 13:06:32;;;;;;;20.92;7.68;;;6.70;99.90;;;;;;5080047;28;20058;-76
2022/01/16 13:09:11;;;;;;;22.05;8.13;;;6.70;99.90;;;;;;5067341;28;21045;-76
2022/01/16 13:11:53;;;;;;;26.20;8.05;;;7.40;99.90;;;;;;5063096;28;20227;-76
2022/01/16 13:14:25;;;;;;;24.25;8.50;;;6.70;99.90;;;;;;5055663;28;20152;-76
2022/01/16 13:16:54;;;;;;;18.88;7.75;;;6.70;99.90;;;;;;5087460;28;20055;-76
2022/01/16 13:19:25;;;;;;;22.50;8.10;;;6.70;99.90;;;;;;5076779;28;20043;-76
2022/01/16 13:22:13;;;;;;;20.00;7.75;;;6.70;99.90;;;;;;5085279;28;20056;-76
2022/01/16 13:25:03;;;;;;;23.73;7.90;;;6.70;99.90;;;;;;5090377;28;20044;-76